createdAt,value
2022-10-21T00:01:12.982Z,88.32
2022-10-21T00:04:01.558Z,88.77
2022-10-21T00:06:49.490Z,89.97
2022-10-21T00:09:40.709Z,91.59
2022-10-21T00:12:27.917Z,89.39
2022-10-21T00:15:14.688Z,89.15
2022-10-21T00:18:00.914Z,86.70
2022-10-21T00:20:48.004Z,86.28
2022-10-21T00:23:34.019Z,86.85
2022-10-21T00:26:21.870Z,87.40
2022-10-21T00:29:07.952Z,89.08
2022-10-21T00:31:54.655Z,87.09
2022-10-21T00:34:43.301Z,90.00
2022-10-21T00:37:30.931Z,87.99
2022-10-21T00:40:18.040Z,85.94
2022-10-21T00:43:04.827Z,84.08
2022-10-21T00:45:54.579Z,84.56
2022-10-21T00:48:43.101Z,83.67
2022-10-21T00:51:30.700Z,85.70
2022-10-21T00:54:18.044Z,86.23
2022-10-21T00:57:11.945Z,86.41
2022-10-21T01:00:00.585Z,88.15
2022-10-21T01:02:47.334Z,88.84
2022-10-21T01:05:37.730Z,87.13
2022-10-21T01:08:25.701Z,85.92
2022-10-21T01:11:15.390Z,85.31
2022-10-21T01:14:24.638Z,86.28
2022-10-21T01:17:51.221Z,87.03
2022-10-21T01:21:09.277Z,86.70
2022-10-21T01:24:29.790Z,86.14
2022-10-21T01:27:50.161Z,86.19
2022-10-21T01:30:38.198Z,86.44
2022-10-21T01:33:52.603Z,87.77
2022-10-21T01:36:42.895Z,88.31
2022-10-21T01:39:39.250Z,85.07
2022-10-21T01:42:32.934Z,84.77
2022-10-21T01:45:33.648Z,83.65
2022-10-21T01:48:34.553Z,83.85
2022-10-21T01:51:22.905Z,86.51
2022-10-21T01:54:14.297Z,89.83
2022-10-21T01:57:02.567Z,86.82
2022-10-21T01:59:49.895Z,87.69
2022-10-21T02:02:39.732Z,86.81
2022-10-21T02:05:31.768Z,87.98
2022-10-21T02:08:17.842Z,87.48
2022-10-21T02:11:07.749Z,88.59
2022-10-21T02:14:02.837Z,89.82
2022-10-21T02:16:50.127Z,89.33
2022-10-21T02:19:39.131Z,91.55
2022-10-21T02:22:25.683Z,91.16
2022-10-21T02:25:23.118Z,91.48
2022-10-21T02:28:10.078Z,91.79
2022-10-21T02:31:14.398Z,90.14
2022-10-21T02:34:14.937Z,90.40
2022-10-21T02:37:11.254Z,95.98
2022-10-21T02:40:18.928Z,92.10
2022-10-21T02:43:11.085Z,93.42
2022-10-21T02:46:05.953Z,90.56
2022-10-21T02:48:53.306Z,88.69
2022-10-21T02:51:41.141Z,92.33
2022-10-21T02:54:27.361Z,88.15
2022-10-21T02:57:14.173Z,90.19
2022-10-21T03:00:00.651Z,87.69
2022-10-21T03:02:50.765Z,85.92
2022-10-21T03:05:37.594Z,89.95
2022-10-21T03:08:23.873Z,88.43
2022-10-21T03:11:11.547Z,86.17
2022-10-21T03:13:59.145Z,88.59
2022-10-21T03:16:45.772Z,89.19
2022-10-21T03:19:39.032Z,88.19
2022-10-21T03:22:25.524Z,88.72
2022-10-21T03:25:14.008Z,87.42
2022-10-21T03:28:00.383Z,87.15
2022-10-21T03:30:46.608Z,87.61
2022-10-21T03:33:33.034Z,88.85
2022-10-21T03:36:19.972Z,87.39
2022-10-21T03:39:06.792Z,88.57
2022-10-21T03:41:53.597Z,88.79
2022-10-21T03:44:40.368Z,88.24
2022-10-21T03:47:27.635Z,87.93
2022-10-21T03:50:17.331Z,88.29
2022-10-21T03:53:13.780Z,87.68
2022-10-21T03:56:14.808Z,89.46
2022-10-21T03:59:06.751Z,89.88
2022-10-21T04:01:54.680Z,90.92
2022-10-21T04:04:42.210Z,91.91
2022-10-21T04:07:32.441Z,95.27
2022-10-21T04:10:22.989Z,95.42
2022-10-21T04:13:09.757Z,96.53
2022-10-21T04:16:00.864Z,96.18
2022-10-21T04:18:51.277Z,97.45
2022-10-21T04:21:38.049Z,96.57
2022-10-21T04:24:24.630Z,95.94
2022-10-21T04:27:11.287Z,95.86
2022-10-21T04:29:58.781Z,95.55
2022-10-21T04:32:56.598Z,94.74
2022-10-21T04:35:46.518Z,91.86
2022-10-21T04:38:34.089Z,94.49
2022-10-21T04:41:29.487Z,93.81
2022-10-21T04:44:17.509Z,93.91
2022-10-21T04:47:06.437Z,92.20
2022-10-21T04:49:54.954Z,93.36
2022-10-21T04:52:41.902Z,92.49
2022-10-21T04:55:31.500Z,92.04
2022-10-21T04:58:21.871Z,93.02
2022-10-21T05:01:11.839Z,94.17
2022-10-21T05:04:01.660Z,93.26
2022-10-21T05:06:49.140Z,96.23
2022-10-21T05:09:43.634Z,94.27
2022-10-21T05:12:31.063Z,90.76
2022-10-21T05:15:17.633Z,89.82
2022-10-21T05:18:05.608Z,90.02
2022-10-21T05:20:55.122Z,89.70
2022-10-21T05:23:42.208Z,90.76
2022-10-21T05:26:32.770Z,90.48
2022-10-21T05:29:25.642Z,90.87
2022-10-21T05:32:18.935Z,89.29
2022-10-21T05:35:12.377Z,89.09
2022-10-21T05:37:59.146Z,88.47
2022-10-21T05:40:45.967Z,89.25
2022-10-21T05:43:33.766Z,87.54
2022-10-21T05:46:21.077Z,88.59
2022-10-21T05:49:12.849Z,89.52
2022-10-21T05:52:06.484Z,87.14
2022-10-21T05:57:46.997Z,86.58
2022-10-21T06:00:35.817Z,86.84
2022-10-21T06:03:26.007Z,87.90
2022-10-21T06:06:12.986Z,86.70
2022-10-21T06:09:01.367Z,87.36
2022-10-21T06:11:48.930Z,85.98
2022-10-21T06:14:43.123Z,86.07
2022-10-21T06:17:30.569Z,86.66
2022-10-21T06:20:19.630Z,86.11
2022-10-21T06:23:12.400Z,85.04
2022-10-21T06:26:01.826Z,84.63
2022-10-21T06:28:49.169Z,83.82
2022-10-21T06:31:37.917Z,87.76
2022-10-21T06:34:27.586Z,85.04
2022-10-21T06:37:16.511Z,88.80
2022-10-21T06:40:05.830Z,85.94
2022-10-21T06:42:53.576Z,83.37
2022-10-21T06:45:39.985Z,86.25
2022-10-21T06:48:27.070Z,88.51
2022-10-21T06:51:20.117Z,85.29
2022-10-21T06:54:09.886Z,85.17
2022-10-21T06:56:56.838Z,86.23
2022-10-21T06:59:47.493Z,84.19
2022-10-21T07:02:34.489Z,83.24
2022-10-21T07:05:22.149Z,82.81
2022-10-21T07:08:12.068Z,83.40
2022-10-21T07:11:00.884Z,83.58
2022-10-21T07:13:58.478Z,82.63
2022-10-21T07:16:55.687Z,79.93
2022-10-21T07:19:42.641Z,79.57
2022-10-21T07:22:38.559Z,78.90
2022-10-21T07:25:27.941Z,75.04
2022-10-21T07:28:15.923Z,75.11
2022-10-21T07:31:06.123Z,74.33
2022-10-21T07:33:53.624Z,72.96
2022-10-21T07:36:52.852Z,71.51
2022-10-21T07:39:39.616Z,72.67
2022-10-21T07:42:28.694Z,72.51
2022-10-21T07:45:16.578Z,71.19
2022-10-21T07:48:03.260Z,68.31
2022-10-21T07:50:52.624Z,71.03
2022-10-21T07:53:42.530Z,69.37
2022-10-21T07:56:34.823Z,68.81
2022-10-21T07:59:23.554Z,66.82
2022-10-21T08:02:14.164Z,66.81
2022-10-21T08:05:00.659Z,68.28
2022-10-21T08:07:48.979Z,66.45
2022-10-21T08:10:47.521Z,67.10
2022-10-21T08:13:35.655Z,66.23
2022-10-21T08:16:25.682Z,64.68
2022-10-21T08:19:20.508Z,66.00
2022-10-21T08:22:09.863Z,64.02
2022-10-21T08:24:56.740Z,64.54
2022-10-21T08:27:46.524Z,64.38
2022-10-21T08:30:35.742Z,63.18
2022-10-21T08:33:26.523Z,62.82
2022-10-21T08:36:18.088Z,62.16
2022-10-21T08:39:08.666Z,61.54
2022-10-21T08:41:55.538Z,60.48
2022-10-21T08:44:57.102Z,59.71
2022-10-21T08:47:56.738Z,58.94
2022-10-21T08:50:50.739Z,59.61
2022-10-21T08:53:52.466Z,58.60
2022-10-21T08:56:40.520Z,58.98
2022-10-21T08:59:28.956Z,58.87
2022-10-21T09:02:25.616Z,60.10
2022-10-21T09:05:16.649Z,58.29
2022-10-21T09:08:15.976Z,58.07
2022-10-21T09:11:24.625Z,55.90
2022-10-21T09:14:51.042Z,55.29
2022-10-21T09:18:33.739Z,56.10
2022-10-21T09:21:27.588Z,55.61
2022-10-21T09:24:50.722Z,53.65
2022-10-21T09:27:55.186Z,56.42
2022-10-21T09:30:44.405Z,54.78
2022-10-21T09:33:32.856Z,52.95
2022-10-21T09:36:49.472Z,52.45
2022-10-21T09:39:42.148Z,52.24
2022-10-21T09:42:46.292Z,53.96
2022-10-21T09:45:45.306Z,52.04
2022-10-21T09:52:05.114Z,52.91
2022-10-21T09:54:58.966Z,54.24
2022-10-21T09:57:54.502Z,54.36
2022-10-21T10:00:50.790Z,53.39
2022-10-21T10:03:47.368Z,51.15
2022-10-21T10:06:46.461Z,51.97
2022-10-21T10:09:37.105Z,52.83
2022-10-21T10:12:27.388Z,53.09
2022-10-21T10:15:31.477Z,52.40
2022-10-21T10:18:22.687Z,49.95
2022-10-21T10:21:23.390Z,49.10
2022-10-21T10:24:21.471Z,49.28
2022-10-21T10:27:23.384Z,50.33
2022-10-21T10:30:14.258Z,50.00
2022-10-21T10:33:08.432Z,47.66
2022-10-21T10:36:05.569Z,48.39
2022-10-21T10:38:56.821Z,46.83
2022-10-21T10:41:47.610Z,48.87
2022-10-21T10:44:42.962Z,47.91
2022-10-21T10:47:32.719Z,49.45
2022-10-21T10:50:38.355Z,49.44
2022-10-21T11:32:58.427Z,50.12
2022-10-21T11:39:27.507Z,47.72
2022-10-21T11:42:25.418Z,46.56
2022-10-21T11:45:56.673Z,48.12
2022-10-21T11:49:04.770Z,47.07
2022-10-21T11:52:37.926Z,50.98
2022-10-21T11:59:15.125Z,46.60
2022-10-21T12:02:18.019Z,47.48
2022-10-21T12:05:32.961Z,46.94
2022-10-21T12:08:41.344Z,47.70
2022-10-21T12:11:58.472Z,46.09
2022-10-21T12:14:58.436Z,46.71
2022-10-21T12:17:49.127Z,46.67
2022-10-21T12:20:42.194Z,44.84
2022-10-21T12:23:32.606Z,44.32
2022-10-21T12:30:02.443Z,47.12
2022-10-21T12:33:16.292Z,47.91
2022-10-21T12:36:21.736Z,44.79
2022-10-21T12:39:32.853Z,44.96
2022-10-21T12:42:33.831Z,46.78
2022-10-21T12:45:30.465Z,46.43
2022-10-21T12:48:31.519Z,45.32
2022-10-21T12:51:39.585Z,45.91
2022-10-21T12:54:43.333Z,45.94
2022-10-21T12:57:37.128Z,46.75
2022-10-21T13:00:36.589Z,45.58
2022-10-21T13:03:56.530Z,47.98
2022-10-21T13:06:53.275Z,46.20
2022-10-21T13:09:44.013Z,46.53
2022-10-21T13:12:40.707Z,45.20
2022-10-21T13:15:32.478Z,45.89
2022-10-21T13:19:12.559Z,45.58
2022-10-21T13:22:14.907Z,46.49
2022-10-21T13:25:22.877Z,44.73
2022-10-21T13:28:12.419Z,45.00
2022-10-21T13:31:00.636Z,45.80
2022-10-21T13:33:52.725Z,45.36
2022-10-21T13:36:47.473Z,45.55
2022-10-21T13:39:42.945Z,46.24
2022-10-21T13:42:41.226Z,45.05
2022-10-21T13:48:52.529Z,45.29
2022-10-21T13:51:47.719Z,44.62
2022-10-21T13:54:38.528Z,44.79
2022-10-21T13:57:40.632Z,45.45
2022-10-21T14:00:32.815Z,46.56
2022-10-21T14:03:28.073Z,46.06
2022-10-21T14:06:31.966Z,45.30
2022-10-21T14:09:24.799Z,44.44
2022-10-21T14:12:29.773Z,44.80
2022-10-21T14:15:23.545Z,47.53
2022-10-21T14:18:29.393Z,46.44
2022-10-21T14:21:24.608Z,45.81
2022-10-21T14:24:36.935Z,45.18
2022-10-21T14:27:45.436Z,47.15
2022-10-21T14:30:37.105Z,47.72
2022-10-21T14:36:34.515Z,46.67
2022-10-21T14:39:37.066Z,45.19
2022-10-21T14:42:26.550Z,48.01
2022-10-21T14:45:18.266Z,47.12
2022-10-21T14:48:28.140Z,47.78
2022-10-21T14:51:25.616Z,46.69
2022-10-21T14:54:33.641Z,46.04
2022-10-21T14:57:50.222Z,46.84
2022-10-21T15:00:42.492Z,49.29
2022-10-21T15:03:45.450Z,48.62
2022-10-21T15:06:38.485Z,48.31
2022-10-21T15:09:37.750Z,49.00
2022-10-21T15:12:33.439Z,48.42
2022-10-21T15:15:53.959Z,49.52
2022-10-21T15:18:53.974Z,47.46
2022-10-21T15:21:55.434Z,49.41
2022-10-21T15:24:51.737Z,48.55
2022-10-21T15:27:49.069Z,49.44
2022-10-21T15:33:49.440Z,51.72
2022-10-21T15:36:37.963Z,50.35
2022-10-21T15:42:27.503Z,48.54
2022-10-21T15:45:23.784Z,48.95
2022-10-21T15:48:12.813Z,48.28
2022-10-21T15:51:06.640Z,48.83
2022-10-21T15:53:59.076Z,49.30
2022-10-21T15:57:04.463Z,49.14
2022-10-21T16:00:03.472Z,49.36
2022-10-21T16:02:51.791Z,49.87
2022-10-21T16:08:43.705Z,51.04
2022-10-21T16:12:00.137Z,49.87
2022-10-21T16:17:54.678Z,50.18
2022-10-21T16:23:53.752Z,50.87
2022-10-21T16:26:51.494Z,52.48
2022-10-21T16:29:45.324Z,52.99
2022-10-21T16:32:45.480Z,53.08
2022-10-21T16:35:33.827Z,51.95
2022-10-21T16:41:13.814Z,53.25
2022-10-21T16:44:02.620Z,52.82
2022-10-21T16:46:59.258Z,52.01
2022-10-21T16:50:00.412Z,52.76
2022-10-21T16:55:56.910Z,54.11
2022-10-21T16:58:44.737Z,54.60
2022-10-21T17:01:43.473Z,56.83
2022-10-21T17:07:32.454Z,60.63
2022-10-21T17:10:26.449Z,55.72
2022-10-21T17:22:24.995Z,58.09
2022-10-21T17:28:21.778Z,58.53
2022-10-21T17:31:22.464Z,58.85
2022-10-21T17:37:13.829Z,57.55
2022-10-21T17:40:00.359Z,58.41
2022-10-21T17:42:59.545Z,58.16
2022-10-21T17:45:51.484Z,59.24
2022-10-21T17:51:39.211Z,57.89
2022-10-21T17:54:29.154Z,58.46
2022-10-21T17:57:32.507Z,59.32
2022-10-21T18:00:26.641Z,59.55
2022-10-21T18:03:18.378Z,59.09
2022-10-21T18:06:08.552Z,59.38
2022-10-21T18:12:12.658Z,59.50
2022-10-21T18:15:11.428Z,59.37
2022-10-21T18:18:23.504Z,59.60
2022-10-21T18:21:18.643Z,58.94
2022-10-21T18:24:16.020Z,59.71
2022-10-21T18:27:10.469Z,60.79
2022-10-21T18:33:11.154Z,60.28
2022-10-21T18:36:12.462Z,61.21
2022-10-21T18:39:02.559Z,60.26
2022-10-21T18:44:58.024Z,59.85
2022-10-21T18:47:50.128Z,59.38
2022-10-21T18:50:39.479Z,60.10
2022-10-21T18:53:32.481Z,58.98
2022-10-21T18:56:27.433Z,59.90
2022-10-21T18:59:18.896Z,60.50
2022-10-21T19:05:16.493Z,59.42
2022-10-21T19:08:14.572Z,59.59
2022-10-21T19:11:04.921Z,60.68
2022-10-21T19:13:55.666Z,58.42
2022-10-21T19:16:47.568Z,61.22
2022-10-21T19:19:39.521Z,60.56
2022-10-21T19:22:37.551Z,59.03
2022-10-21T19:25:30.814Z,60.59
2022-10-21T19:28:18.529Z,60.47
2022-10-21T19:34:04.677Z,60.35
2022-10-21T19:36:58.793Z,61.29
2022-10-21T19:39:49.490Z,59.04
2022-10-21T19:42:37.975Z,59.60
2022-10-21T19:45:37.399Z,60.63
2022-10-21T19:48:32.224Z,60.40
2022-10-21T19:51:25.575Z,60.92
2022-10-21T19:54:16.498Z,64.40
2022-10-21T19:57:06.399Z,63.26
2022-10-21T19:59:56.421Z,65.21
2022-10-21T20:02:51.146Z,64.98
2022-10-21T20:05:48.898Z,62.54
2022-10-21T20:08:42.774Z,62.05
2022-10-21T20:11:30.670Z,61.88
2022-10-21T20:14:21.709Z,62.91
2022-10-21T20:17:09.237Z,62.84
2022-10-21T20:19:56.051Z,67.75
2022-10-21T20:22:44.681Z,68.47
2022-10-21T20:25:41.662Z,68.97
2022-10-21T20:28:29.136Z,69.73
2022-10-21T20:31:18.915Z,67.76
2022-10-21T20:34:06.856Z,67.95
2022-10-21T20:36:57.622Z,80.53
2022-10-21T20:39:44.958Z,77.22
2022-10-21T20:42:32.032Z,70.81
2022-10-21T20:45:27.676Z,70.01
2022-10-21T20:48:19.473Z,73.78
2022-10-21T20:51:07.805Z,71.72
2022-10-21T20:54:04.456Z,71.69
2022-10-21T20:56:51.693Z,71.52
2022-10-21T20:59:41.466Z,70.21
2022-10-21T21:02:28.133Z,74.13
2022-10-21T21:05:18.573Z,71.02
2022-10-21T21:08:14.464Z,73.26
2022-10-21T21:11:01.623Z,72.87
2022-10-21T21:13:48.118Z,76.25
2022-10-21T21:16:34.474Z,76.80
2022-10-21T21:19:23.122Z,76.89
2022-10-21T21:22:11.851Z,72.94
2022-10-21T21:24:58.336Z,76.76
2022-10-21T21:27:46.145Z,84.72
2022-10-21T21:30:32.263Z,85.63
2022-10-21T21:33:19.815Z,85.13
2022-10-21T21:36:07.609Z,79.40
2022-10-21T21:38:54.266Z,75.67
2022-10-21T21:41:40.484Z,73.07
2022-10-21T21:44:27.382Z,75.21
2022-10-21T21:47:15.559Z,85.63
2022-10-21T21:50:02.557Z,77.11
2022-10-21T21:52:51.932Z,76.20
2022-10-21T21:55:38.080Z,74.86
2022-10-21T21:58:24.673Z,75.93
2022-10-21T22:01:11.951Z,76.41
2022-10-21T22:03:58.606Z,75.91
2022-10-21T22:06:46.265Z,72.21
2022-10-21T22:09:34.673Z,73.53
2022-10-21T22:12:39.715Z,72.32
2022-10-21T22:18:33.476Z,75.08
2022-10-21T22:21:19.745Z,75.46
2022-10-21T22:24:13.295Z,74.73
2022-10-21T22:27:01.517Z,74.05
2022-10-21T22:29:47.335Z,72.07
2022-10-21T22:32:35.023Z,71.21
2022-10-21T22:35:20.847Z,72.46
2022-10-21T22:38:07.398Z,72.23
2022-10-21T22:40:56.251Z,73.36
2022-10-21T22:43:43.012Z,72.77
2022-10-21T22:46:33.961Z,70.91
2022-10-21T22:49:24.701Z,72.66
2022-10-21T22:52:10.645Z,73.68
2022-10-21T22:54:57.395Z,73.61
2022-10-21T22:57:43.129Z,71.55
2022-10-21T23:00:30.612Z,71.67
2022-10-21T23:03:19.494Z,72.56
2022-10-21T23:06:05.498Z,72.78
2022-10-21T23:08:52.743Z,70.86
2022-10-21T23:11:39.175Z,72.46
2022-10-21T23:14:25.304Z,71.46
2022-10-21T23:17:12.264Z,69.96
2022-10-21T23:19:58.556Z,70.59
2022-10-21T23:22:44.776Z,71.97
2022-10-21T23:25:31.563Z,77.44
2022-10-21T23:31:05.583Z,76.88
2022-10-21T23:33:52.420Z,76.33
2022-10-21T23:36:38.634Z,75.55
2022-10-21T23:39:25.090Z,73.47
2022-10-21T23:42:11.939Z,72.04
2022-10-21T23:44:58.433Z,71.61
2022-10-21T23:47:44.395Z,71.97
2022-10-21T23:50:32.873Z,73.37
2022-10-21T23:53:19.474Z,73.96
2022-10-21T23:56:05.815Z,74.68
2022-10-21T23:58:52.459Z,74.80
